createdAt,value
2022-10-10T00:01:32.056Z,13.67
2022-10-10T00:04:02.544Z,13.65
2022-10-10T00:06:33.307Z,13.69
2022-10-10T00:09:01.835Z,13.67
2022-10-10T00:11:31.019Z,13.68
2022-10-10T00:14:00.054Z,13.75
2022-10-10T00:16:28.201Z,13.75
2022-10-10T00:18:56.548Z,13.73
2022-10-10T00:21:26.237Z,13.64
2022-10-10T00:23:54.465Z,13.68
2022-10-10T00:26:22.822Z,13.58
2022-10-10T00:28:51.153Z,13.53
2022-10-10T00:31:19.689Z,13.53
2022-10-10T00:33:47.953Z,13.54
2022-10-10T00:36:16.841Z,13.54
2022-10-10T00:38:46.207Z,13.53
2022-10-10T00:41:14.530Z,13.55
2022-10-10T00:43:42.866Z,13.51
2022-10-10T00:46:11.380Z,13.47
2022-10-10T00:48:43.293Z,13.43
2022-10-10T00:51:15.009Z,13.45
2022-10-10T00:53:47.695Z,13.45
2022-10-10T00:56:19.233Z,13.42
2022-10-10T00:58:51.893Z,13.38
2022-10-10T01:01:20.371Z,13.42
2022-10-10T01:03:48.624Z,13.43
2022-10-10T01:06:17.235Z,13.43
2022-10-10T01:08:47.116Z,13.40
2022-10-10T01:11:35.791Z,13.42
2022-10-10T01:14:16.044Z,13.41
2022-10-10T01:16:52.722Z,13.44
2022-10-10T01:19:50.657Z,13.45
2022-10-10T01:22:27.891Z,13.50
2022-10-10T01:25:06.863Z,13.40
2022-10-10T01:27:42.024Z,13.43
2022-10-10T01:30:15.328Z,13.49
2022-10-10T01:32:47.641Z,13.41
2022-10-10T01:35:41.261Z,13.38
2022-10-10T01:38:22.383Z,13.43
2022-10-10T01:40:56.261Z,13.39
2022-10-10T01:43:26.257Z,13.33
2022-10-10T01:45:56.962Z,13.26
2022-10-10T01:48:31.563Z,13.24
2022-10-10T01:51:16.627Z,13.24
2022-10-10T01:53:54.387Z,13.24
2022-10-10T01:56:32.386Z,13.23
2022-10-10T01:59:12.120Z,13.25
2022-10-10T02:01:49.244Z,13.27
2022-10-10T02:04:29.096Z,13.23
2022-10-10T02:07:03.282Z,13.23
2022-10-10T02:09:37.334Z,13.21
2022-10-10T02:12:06.381Z,13.24
2022-10-10T02:14:41.628Z,13.21
2022-10-10T02:17:13.697Z,13.22
2022-10-10T02:19:47.475Z,13.14
2022-10-10T02:22:15.846Z,13.23
2022-10-10T02:24:44.418Z,13.23
2022-10-10T02:27:18.383Z,13.19
2022-10-10T02:29:48.773Z,13.14
2022-10-10T02:32:22.707Z,13.10
2022-10-10T02:34:55.480Z,13.11
2022-10-10T02:37:25.135Z,13.06
2022-10-10T02:40:00.053Z,13.02
2022-10-10T02:42:30.241Z,13.04
2022-10-10T02:44:59.073Z,13.02
2022-10-10T02:47:28.998Z,12.93
2022-10-10T02:49:57.325Z,12.92
2022-10-10T02:52:25.556Z,12.96
2022-10-10T02:54:53.999Z,12.93
2022-10-10T02:57:22.328Z,12.92
2022-10-10T02:59:50.561Z,13.02
2022-10-10T03:02:18.717Z,12.89
2022-10-10T03:04:48.707Z,12.91
2022-10-10T03:07:17.058Z,12.89
2022-10-10T03:09:45.087Z,12.95
2022-10-10T03:12:13.366Z,12.85
2022-10-10T03:14:41.963Z,12.83
2022-10-10T03:17:10.064Z,12.91
2022-10-10T03:19:38.788Z,12.84
2022-10-10T03:22:08.738Z,12.87
2022-10-10T03:24:36.781Z,12.85
2022-10-10T03:27:05.054Z,12.83
2022-10-10T03:29:33.407Z,12.85
2022-10-10T03:32:01.405Z,12.81
2022-10-10T03:34:29.732Z,12.82
2022-10-10T03:36:57.852Z,12.78
2022-10-10T03:39:27.353Z,12.81
2022-10-10T03:41:55.634Z,12.82
2022-10-10T03:44:24.126Z,12.81
2022-10-10T03:46:52.249Z,12.82
2022-10-10T03:49:20.545Z,12.66
2022-10-10T03:51:48.905Z,12.80
2022-10-10T03:54:17.016Z,12.84
2022-10-10T03:56:46.867Z,12.77
2022-10-10T03:59:15.169Z,12.69
2022-10-10T04:01:43.368Z,12.74
2022-10-10T04:04:11.832Z,12.75
2022-10-10T04:06:39.947Z,12.75
2022-10-10T04:09:09.177Z,12.69
2022-10-10T04:11:38.806Z,12.69
2022-10-10T04:14:08.586Z,12.65
2022-10-10T04:16:36.614Z,12.64
2022-10-10T04:19:04.830Z,12.77
2022-10-10T04:21:33.104Z,12.73
2022-10-10T04:24:01.210Z,12.65
2022-10-10T04:26:29.469Z,12.62
2022-10-10T04:28:57.766Z,12.58
2022-10-10T04:31:27.500Z,12.61
2022-10-10T04:33:55.746Z,12.69
2022-10-10T04:36:24.046Z,12.57
2022-10-10T04:38:52.223Z,12.66
2022-10-10T04:41:20.630Z,12.59
2022-10-10T04:43:48.775Z,12.55
2022-10-10T04:46:17.200Z,12.50
2022-10-10T04:48:46.925Z,12.47
2022-10-10T04:51:15.172Z,12.51
2022-10-10T04:53:48.118Z,12.54
2022-10-10T04:56:18.784Z,12.54
2022-10-10T04:58:46.830Z,12.52
2022-10-10T05:01:15.143Z,12.51
2022-10-10T05:03:46.244Z,12.47
2022-10-10T05:06:15.780Z,12.48
2022-10-10T05:08:44.467Z,12.50
2022-10-10T05:11:12.744Z,12.60
2022-10-10T05:13:41.222Z,12.54
2022-10-10T05:16:09.532Z,12.60
2022-10-10T05:18:39.538Z,12.45
2022-10-10T05:21:07.861Z,12.45
2022-10-10T05:23:38.305Z,12.52
2022-10-10T05:26:06.692Z,12.56
2022-10-10T05:28:36.624Z,12.38
2022-10-10T05:31:05.573Z,12.36
2022-10-10T05:33:34.950Z,12.31
2022-10-10T05:36:05.185Z,12.24
2022-10-10T05:38:34.035Z,12.20
2022-10-10T05:41:03.574Z,12.19
2022-10-10T05:43:31.726Z,12.19
2022-10-10T05:46:00.198Z,12.15
2022-10-10T05:48:28.374Z,12.12
2022-10-10T05:50:58.111Z,12.10
2022-10-10T05:53:27.849Z,12.10
2022-10-10T05:55:56.041Z,12.07
2022-10-10T05:58:27.337Z,12.07
2022-10-10T06:00:55.546Z,12.20
2022-10-10T06:03:24.162Z,12.06
2022-10-10T06:05:53.707Z,12.02
2022-10-10T06:08:22.014Z,12.03
2022-10-10T06:10:50.624Z,12.05
2022-10-10T06:13:24.127Z,12.02
2022-10-10T06:15:55.298Z,12.10
2022-10-10T06:18:23.304Z,12.08
2022-10-10T06:20:51.458Z,12.07
2022-10-10T06:23:20.491Z,12.13
2022-10-10T06:25:48.591Z,12.19
2022-10-10T06:28:16.807Z,12.17
2022-10-10T06:30:48.674Z,12.17
2022-10-10T06:33:19.501Z,12.19
2022-10-10T06:35:49.774Z,12.28
2022-10-10T06:38:18.354Z,12.27
2022-10-10T06:40:47.758Z,12.34
2022-10-10T06:43:17.495Z,12.31
2022-10-10T06:45:48.442Z,12.31
2022-10-10T06:48:18.366Z,12.28
2022-10-10T06:50:57.560Z,12.34
2022-10-10T06:53:26.345Z,12.30
2022-10-10T06:55:55.010Z,12.39
2022-10-10T06:58:24.031Z,12.37
2022-10-10T07:00:53.729Z,12.37
2022-10-10T07:03:24.715Z,12.37
2022-10-10T07:05:53.978Z,12.45
2022-10-10T07:08:23.326Z,12.51
2022-10-10T07:10:51.847Z,12.51
2022-10-10T07:13:20.629Z,12.53
2022-10-10T07:15:49.318Z,12.53
2022-10-10T07:18:19.111Z,12.58
2022-10-10T07:20:49.822Z,12.65
2022-10-10T07:23:18.462Z,12.64
2022-10-10T07:25:46.823Z,12.71
2022-10-10T07:28:15.468Z,12.73
2022-10-10T07:30:45.196Z,12.72
2022-10-10T07:33:14.195Z,12.75
2022-10-10T07:35:42.707Z,12.74
2022-10-10T07:38:13.806Z,12.77
2022-10-10T07:40:42.302Z,12.79
2022-10-10T07:43:12.822Z,12.82
2022-10-10T07:45:44.062Z,12.84
2022-10-10T07:48:12.671Z,12.83
2022-10-10T07:50:42.604Z,12.87
2022-10-10T07:53:13.732Z,12.92
2022-10-10T07:55:44.213Z,12.92
2022-10-10T07:58:13.614Z,12.86
2022-10-10T08:00:46.154Z,12.92
2022-10-10T08:03:14.513Z,12.95
2022-10-10T08:05:43.461Z,12.97
2022-10-10T08:08:13.045Z,13.05
2022-10-10T08:10:46.301Z,13.07
2022-10-10T08:13:14.892Z,13.13
2022-10-10T08:15:43.220Z,13.22
2022-10-10T08:18:11.750Z,13.19
2022-10-10T08:20:40.238Z,13.26
2022-10-10T08:23:10.515Z,13.31
2022-10-10T08:25:38.849Z,13.41
2022-10-10T08:28:08.859Z,13.44
2022-10-10T08:30:41.994Z,13.47
2022-10-10T08:33:10.418Z,13.47
2022-10-10T08:35:39.685Z,13.64
2022-10-10T08:38:09.197Z,13.58
2022-10-10T08:40:45.096Z,13.60
2022-10-10T08:43:23.654Z,13.58
2022-10-10T08:45:54.420Z,13.73
2022-10-10T08:48:27.160Z,13.71
2022-10-10T08:51:01.373Z,13.74
2022-10-10T08:53:33.679Z,13.73
2022-10-10T08:56:03.426Z,13.73
2022-10-10T08:58:38.618Z,13.78
2022-10-10T09:01:12.825Z,13.79
2022-10-10T09:03:47.658Z,13.83
2022-10-10T09:06:30.336Z,13.86
2022-10-10T09:09:06.364Z,13.83
2022-10-10T09:11:49.396Z,13.89
2022-10-10T09:14:34.815Z,13.95
2022-10-10T09:17:10.569Z,14.06
2022-10-10T09:19:50.942Z,14.13
2022-10-10T09:22:24.842Z,14.15
2022-10-10T09:24:57.113Z,14.20
2022-10-10T09:27:30.428Z,14.21
2022-10-10T09:30:04.776Z,14.27
2022-10-10T09:32:38.951Z,14.24
2022-10-10T09:35:17.961Z,14.32
2022-10-10T09:37:50.099Z,14.45
2022-10-10T09:40:27.008Z,14.51
2022-10-10T09:42:56.857Z,14.53
2022-10-10T09:45:31.645Z,14.59
2022-10-10T09:48:00.406Z,14.61
2022-10-10T09:50:28.555Z,14.65
2022-10-10T09:52:58.721Z,14.54
2022-10-10T09:55:30.331Z,14.55
2022-10-10T09:58:04.039Z,14.65
2022-10-10T10:00:37.995Z,14.71
2022-10-10T10:03:12.460Z,14.48
2022-10-10T10:05:43.090Z,14.57
2022-10-10T10:08:25.372Z,14.64
2022-10-10T10:10:58.265Z,14.69
2022-10-10T10:13:31.401Z,14.68
2022-10-10T10:16:05.424Z,14.58
2022-10-10T10:18:40.169Z,14.52
2022-10-10T10:21:19.122Z,14.58
2022-10-10T10:23:53.291Z,14.56
2022-10-10T10:26:24.626Z,14.55
2022-10-10T10:28:53.919Z,14.52
2022-10-10T10:31:33.214Z,14.49
2022-10-10T10:34:17.801Z,14.44
2022-10-10T10:36:55.915Z,14.51
2022-10-10T10:39:43.621Z,14.54
2022-10-10T10:42:29.325Z,14.47
2022-10-10T10:45:06.469Z,14.50
2022-10-10T10:47:45.646Z,14.50
2022-10-10T10:50:39.722Z,14.53
2022-10-10T10:53:20.282Z,14.57
2022-10-10T10:55:53.236Z,14.67
2022-10-10T10:59:22.519Z,14.78
2022-10-10T11:01:56.247Z,14.97
2022-10-10T11:05:20.845Z,15.07
2022-10-10T11:07:54.685Z,15.19
2022-10-10T11:10:32.074Z,15.12
2022-10-10T11:13:09.969Z,15.17
2022-10-10T11:18:36.691Z,15.02
2022-10-10T11:21:10.296Z,15.04
2022-10-10T11:23:43.877Z,15.07
2022-10-10T11:26:18.229Z,15.11
2022-10-10T11:28:51.590Z,14.96
2022-10-10T11:31:25.599Z,14.94
2022-10-10T11:33:58.882Z,14.93
2022-10-10T11:36:31.702Z,14.87
2022-10-10T11:39:05.808Z,14.87
2022-10-10T11:41:39.326Z,14.96
2022-10-10T11:44:14.140Z,14.86
2022-10-10T11:46:48.157Z,14.90
2022-10-10T11:49:21.545Z,14.95
2022-10-10T11:52:32.471Z,14.95
2022-10-10T11:55:07.498Z,14.90
2022-10-10T11:57:40.436Z,14.89
2022-10-10T12:00:14.559Z,14.88
2022-10-10T12:02:45.124Z,14.87
2022-10-10T12:05:24.005Z,14.84
2022-10-10T12:08:08.745Z,14.76
2022-10-10T12:10:42.471Z,14.83
2022-10-10T12:13:28.364Z,14.89
2022-10-10T12:16:00.270Z,15.02
2022-10-10T12:18:32.322Z,14.97
2022-10-10T12:21:10.089Z,15.16
2022-10-10T12:23:41.287Z,15.25
2022-10-10T12:26:15.291Z,15.31
2022-10-10T12:29:03.316Z,15.38
2022-10-10T12:31:36.457Z,15.46
2022-10-10T12:34:40.712Z,15.46
2022-10-10T12:37:22.609Z,15.46
2022-10-10T12:40:20.395Z,15.58
2022-10-10T12:43:26.601Z,15.43
2022-10-10T12:46:22.285Z,15.41
2022-10-10T12:49:03.954Z,15.34
2022-10-10T12:51:35.797Z,15.26
2022-10-10T12:54:08.836Z,15.30
2022-10-10T12:56:45.727Z,15.39
2022-10-10T12:59:21.747Z,15.41
2022-10-10T13:01:54.390Z,15.51
2022-10-10T13:04:24.285Z,15.53
2022-10-10T13:06:57.686Z,15.59
2022-10-10T13:09:32.368Z,15.61
2022-10-10T13:12:06.624Z,15.64
2022-10-10T13:14:44.725Z,15.52
2022-10-10T13:17:24.055Z,15.39
2022-10-10T13:19:53.015Z,15.34
2022-10-10T13:22:21.796Z,15.28
2022-10-10T13:24:51.967Z,15.31
2022-10-10T13:27:23.892Z,15.26
2022-10-10T13:29:53.491Z,15.23
2022-10-10T13:32:24.280Z,15.14
2022-10-10T13:34:55.366Z,15.17
2022-10-10T13:37:24.538Z,15.26
2022-10-10T13:39:54.839Z,15.17
2022-10-10T13:42:31.432Z,15.32
2022-10-10T13:45:00.597Z,15.35
2022-10-10T13:47:54.222Z,15.23
2022-10-10T13:50:28.294Z,15.30
2022-10-10T13:53:39.057Z,15.35
2022-10-10T13:56:13.713Z,15.33
2022-10-10T13:58:47.470Z,15.25
2022-10-10T14:01:37.650Z,15.33
2022-10-10T14:04:19.630Z,15.27
2022-10-10T14:06:57.798Z,15.14
2022-10-10T14:09:30.361Z,15.04
2022-10-10T14:12:00.862Z,15.06
2022-10-10T14:14:36.922Z,14.95
2022-10-10T14:17:06.876Z,15.00
2022-10-10T14:19:35.493Z,15.02
2022-10-10T14:22:03.833Z,14.90
2022-10-10T14:24:32.334Z,14.90
2022-10-10T14:27:07.097Z,14.84
2022-10-10T14:29:36.916Z,14.92
2022-10-10T14:32:05.335Z,14.81
2022-10-10T14:34:33.725Z,14.73
2022-10-10T14:37:02.131Z,14.82
2022-10-10T14:39:30.370Z,14.84
2022-10-10T14:42:00.189Z,14.75
2022-10-10T14:44:28.323Z,14.76
2022-10-10T14:46:57.934Z,14.71
2022-10-10T14:49:26.444Z,14.66
2022-10-10T14:51:54.545Z,14.64
2022-10-10T14:54:22.996Z,14.65
2022-10-10T14:57:06.807Z,14.67
2022-10-10T14:59:46.079Z,14.63
2022-10-10T15:02:20.066Z,14.65
2022-10-10T15:04:48.672Z,14.59
2022-10-10T15:07:17.766Z,14.60
2022-10-10T15:12:36.160Z,14.48
2022-10-10T15:15:05.241Z,14.57
2022-10-10T15:17:35.586Z,14.63
2022-10-10T15:20:04.074Z,14.59
2022-10-10T15:22:32.467Z,14.50
2022-10-10T15:25:01.321Z,14.61
2022-10-10T15:27:29.472Z,14.66
2022-10-10T15:29:58.133Z,14.57
2022-10-10T15:32:26.718Z,14.59
2022-10-10T15:34:56.229Z,14.56
2022-10-10T15:37:27.147Z,14.63
2022-10-10T15:39:55.641Z,14.55
2022-10-10T15:42:23.916Z,14.56
2022-10-10T15:44:53.004Z,14.61
2022-10-10T15:47:22.147Z,14.56
2022-10-10T15:49:50.634Z,14.51
2022-10-10T15:52:23.281Z,14.56
2022-10-10T15:54:51.750Z,14.53
2022-10-10T15:57:20.740Z,14.52
2022-10-10T15:59:49.188Z,14.52
2022-10-10T16:02:18.250Z,14.55
2022-10-10T16:04:47.134Z,14.53
2022-10-10T16:07:34.602Z,14.56
2022-10-10T16:10:07.807Z,14.50
2022-10-10T16:12:36.212Z,14.47
2022-10-10T16:15:07.072Z,14.49
2022-10-10T16:17:35.808Z,14.50
2022-10-10T16:20:04.305Z,14.52
2022-10-10T16:22:32.718Z,14.50
2022-10-10T16:25:21.202Z,14.46
2022-10-10T16:27:51.497Z,14.52
2022-10-10T16:30:20.725Z,14.52
2022-10-10T16:32:49.089Z,14.52
2022-10-10T16:35:17.536Z,14.55
2022-10-10T16:37:45.812Z,14.56
2022-10-10T16:40:14.130Z,14.59
2022-10-10T16:42:42.373Z,14.63
2022-10-10T16:45:12.542Z,14.64
2022-10-10T16:47:44.101Z,14.61
2022-10-10T16:50:12.884Z,14.56
2022-10-10T16:52:43.869Z,14.53
2022-10-10T16:55:12.680Z,14.45
2022-10-10T16:57:41.828Z,14.36
2022-10-10T17:00:12.636Z,14.33
2022-10-10T17:02:42.479Z,14.35
2022-10-10T17:05:15.183Z,14.28
2022-10-10T17:07:43.622Z,14.19
2022-10-10T17:10:11.700Z,14.20
2022-10-10T17:12:40.217Z,14.19
2022-10-10T17:15:09.759Z,14.22
2022-10-10T17:17:42.354Z,14.20
2022-10-10T17:20:11.899Z,14.13
2022-10-10T17:22:42.448Z,14.13
2022-10-10T17:25:11.989Z,14.04
2022-10-10T17:27:42.351Z,14.08
2022-10-10T17:30:12.841Z,14.08
2022-10-10T17:32:44.192Z,14.05
2022-10-10T17:35:12.532Z,14.03
2022-10-10T17:37:43.328Z,14.03
2022-10-10T17:40:12.277Z,14.02
2022-10-10T17:42:40.535Z,13.92
2022-10-10T17:45:10.011Z,13.88
2022-10-10T17:47:41.010Z,13.81
2022-10-10T17:50:13.334Z,13.76
2022-10-10T17:52:42.064Z,13.76
2022-10-10T17:55:11.657Z,13.73
2022-10-10T17:57:40.025Z,13.73
2022-10-10T18:00:12.300Z,13.62
2022-10-10T18:02:40.791Z,13.49
2022-10-10T18:05:13.497Z,13.43
2022-10-10T18:07:43.550Z,13.31
2022-10-10T18:10:12.176Z,13.33
2022-10-10T18:12:41.929Z,13.34
2022-10-10T18:15:11.020Z,13.30
2022-10-10T18:17:42.729Z,13.17
2022-10-10T18:20:13.538Z,13.09
2022-10-10T18:22:41.856Z,12.99
2022-10-10T18:25:13.117Z,13.02
2022-10-10T18:27:41.444Z,13.01
2022-10-10T18:30:10.589Z,13.05
2022-10-10T18:32:38.920Z,13.11
2022-10-10T18:35:07.411Z,12.91
2022-10-10T18:37:40.135Z,12.88
2022-10-10T18:40:10.911Z,12.87
2022-10-10T18:42:42.080Z,12.74
2022-10-10T18:45:14.136Z,12.64
2022-10-10T18:47:45.404Z,12.63
2022-10-10T18:50:24.004Z,12.80
2022-10-10T18:52:57.612Z,12.58
2022-10-10T18:55:31.850Z,12.51
2022-10-10T18:58:03.441Z,12.69
2022-10-10T19:00:41.854Z,12.55
2022-10-10T19:03:12.921Z,12.39
2022-10-10T19:05:44.074Z,12.40
2022-10-10T19:08:16.030Z,12.40
2022-10-10T19:10:53.099Z,12.43
2022-10-10T19:13:28.688Z,12.39
2022-10-10T19:16:00.887Z,12.32
2022-10-10T19:18:32.266Z,12.34
2022-10-10T19:21:03.142Z,12.45
2022-10-10T19:23:36.098Z,12.42
2022-10-10T19:26:09.513Z,12.48
2022-10-10T19:28:41.873Z,12.38
2022-10-10T19:31:15.149Z,12.43
2022-10-10T19:33:44.113Z,12.37
2022-10-10T19:36:13.219Z,12.44
2022-10-10T19:38:43.559Z,12.34
2022-10-10T19:41:14.453Z,12.45
2022-10-10T19:43:43.696Z,12.53
2022-10-10T19:46:14.692Z,12.56
2022-10-10T19:48:43.122Z,12.59
2022-10-10T19:51:16.022Z,12.56
2022-10-10T19:53:46.164Z,12.64
2022-10-10T19:56:16.735Z,12.58
2022-10-10T19:58:45.051Z,12.65
2022-10-10T20:01:15.904Z,12.70
2022-10-10T20:03:45.279Z,12.68
2022-10-10T20:06:13.615Z,12.72
2022-10-10T20:08:42.225Z,12.73
2022-10-10T20:11:11.972Z,12.72
2022-10-10T20:13:43.806Z,12.72
2022-10-10T20:16:12.771Z,12.71
2022-10-10T20:18:43.386Z,12.74
2022-10-10T20:21:18.137Z,12.66
2022-10-10T20:23:48.163Z,12.67
2022-10-10T20:26:19.868Z,12.72
2022-10-10T20:28:48.451Z,12.61
2022-10-10T20:31:20.116Z,12.72
2022-10-10T20:33:49.042Z,12.73
2022-10-10T20:36:18.725Z,12.67
2022-10-10T20:38:53.751Z,12.70
2022-10-10T20:41:25.320Z,12.71
2022-10-10T20:43:58.444Z,12.72
2022-10-10T20:46:27.815Z,12.78
2022-10-10T20:48:56.194Z,12.71
2022-10-10T20:51:25.275Z,12.57
2022-10-10T20:53:57.183Z,12.68
2022-10-10T20:56:28.115Z,12.69
2022-10-10T20:58:56.986Z,12.62
2022-10-10T21:01:27.268Z,12.73
2022-10-10T21:03:56.074Z,12.74
2022-10-10T21:06:27.835Z,12.75
2022-10-10T21:08:56.977Z,12.63
2022-10-10T21:11:27.121Z,12.61
2022-10-10T21:13:57.445Z,12.68
2022-10-10T21:16:27.628Z,12.59
2022-10-10T21:18:58.526Z,12.61
2022-10-10T21:21:32.888Z,12.56
2022-10-10T21:24:01.472Z,12.56
2022-10-10T21:26:31.726Z,12.55
2022-10-10T21:29:00.907Z,12.51
2022-10-10T21:31:31.685Z,12.47
2022-10-10T21:34:02.158Z,12.30
2022-10-10T21:36:30.770Z,12.37
2022-10-10T21:38:59.743Z,12.41
2022-10-10T21:41:29.125Z,12.46
2022-10-10T21:44:00.702Z,12.45
2022-10-10T21:46:35.856Z,12.42
2022-10-10T21:49:06.606Z,12.44
2022-10-10T21:51:36.716Z,12.45
2022-10-10T21:54:05.028Z,12.55
2022-10-10T21:56:34.044Z,12.52
2022-10-10T21:59:03.858Z,12.42
2022-10-10T22:01:33.340Z,12.45
2022-10-10T22:04:03.179Z,12.42
2022-10-10T22:06:32.743Z,12.38
2022-10-10T22:09:02.125Z,12.34
2022-10-10T22:11:32.551Z,12.35
2022-10-10T22:14:02.601Z,12.44
2022-10-10T22:16:32.866Z,12.45
2022-10-10T22:19:02.399Z,12.42
2022-10-10T22:21:32.463Z,12.37
2022-10-10T22:24:02.683Z,12.30
2022-10-10T22:26:31.915Z,12.29
2022-10-10T22:29:00.171Z,12.37
2022-10-10T22:31:30.209Z,12.33
2022-10-10T22:34:00.120Z,12.32
2022-10-10T22:36:28.542Z,12.37
2022-10-10T22:38:57.036Z,12.31
2022-10-10T22:41:25.360Z,12.24
2022-10-10T22:43:54.319Z,12.40
2022-10-10T22:46:22.527Z,12.30
2022-10-10T22:48:50.925Z,12.33
2022-10-10T22:51:20.337Z,12.24
2022-10-10T22:53:49.454Z,12.27
2022-10-10T22:56:20.656Z,12.38
2022-10-10T22:58:49.925Z,12.26
2022-10-10T23:01:21.726Z,12.28
2022-10-10T23:03:50.403Z,12.29
2022-10-10T23:06:18.549Z,12.28
2022-10-10T23:08:48.276Z,12.20
2022-10-10T23:11:16.564Z,12.24
2022-10-10T23:13:45.402Z,12.20
2022-10-10T23:16:13.622Z,12.21
2022-10-10T23:18:41.847Z,12.26
2022-10-10T23:21:10.111Z,12.21
2022-10-10T23:23:40.518Z,12.27
2022-10-10T23:26:11.017Z,12.23
2022-10-10T23:28:40.362Z,12.22
2022-10-10T23:31:11.103Z,12.15
2022-10-10T23:33:42.406Z,12.11
2022-10-10T23:36:13.520Z,12.08
2022-10-10T23:38:42.981Z,12.05
2022-10-10T23:41:14.220Z,12.01
2022-10-10T23:43:42.979Z,12.05
2022-10-10T23:46:14.500Z,12.09
2022-10-10T23:48:42.845Z,12.14
2022-10-10T23:51:13.625Z,12.07
2022-10-10T23:53:41.886Z,12.14
2022-10-10T23:56:10.516Z,12.19
2022-10-10T23:58:39.982Z,12.22
